Time;durP1;ratioP1;P1;durP2;ratioP2;P2;SDS_P1;SDS_P2;PMS_P1;PMS_P2;Temp;Humidity;BMP_temperature;BMP_pressure;BME280_temperature;BME280_humidity;BME280_pressure;Samples;Min_cycle;Max_cycle;Signal;HPM_P1;HPM_P2
2022/01/30 00:01:45;;;;;;;34.30;8.45;;;6.70;99.90;;;;;;5033325;28;20124;-76
2022/01/30 00:04:10;;;;;;;36.75;7.75;;;6.70;99.90;;;;;;5034692;28;20049;-76
2022/01/30 00:06:36;;;;;;;38.53;6.65;;;6.70;99.90;;;;;;5034283;28;20416;-74
2022/01/30 00:09:02;;;;;;;37.88;6.70;;;6.80;99.90;;;;;;5034536;28;20465;-77
2022/01/30 00:11:33;;;;;;;30.92;7.47;;;6.80;99.90;;;;;;5034476;28;20120;-75
2022/01/30 00:14:01;;;;;;;33.60;8.23;;;6.90;99.90;;;;;;5034425;28;20045;-77
2022/01/30 00:16:31;;;;;;;35.13;6.57;;;6.70;99.90;;;;;;5034630;28;20037;-76
2022/01/30 00:21:43;;;;;;;37.88;8.27;;;6.40;99.90;;;;;;5034379;28;20055;-74
2022/01/30 00:24:18;;;;;;;55.72;8.68;;;6.20;99.90;;;;;;5034353;28;20112;-77
2022/01/30 00:26:46;;;;;;;53.05;10.77;;;6.10;99.90;;;;;;5034519;28;20042;-76
2022/01/30 00:29:11;;;;;;;30.70;7.15;;;6.10;99.90;;;;;;5157104;22;20119;-75
2022/01/30 00:31:38;;;;;;;37.28;7.40;;;6.20;99.90;;;;;;5024543;28;20057;-76
2022/01/30 00:34:04;;;;;;;34.67;7.18;;;6.20;99.90;;;;;;5028622;28;20041;-74
2022/01/30 00:36:31;;;;;;;30.50;7.38;;;6.20;99.90;;;;;;5034587;28;20046;-75
2022/01/30 00:38:57;;;;;;;43.10;7.57;;;6.20;99.90;;;;;;5034386;28;20049;-77
2022/01/30 00:41:23;;;;;;;34.20;8.13;;;6.10;99.90;;;;;;5034381;28;20049;-75
2022/01/30 00:43:49;;;;;;;39.92;8.50;;;6.10;99.90;;;;;;5034296;28;20057;-76
2022/01/30 00:46:14;;;;;;;39.33;9.35;;;6.10;99.90;;;;;;5033730;28;20132;-74
2022/01/30 00:48:40;;;;;;;40.00;8.48;;;6.10;99.90;;;;;;5034388;28;20046;-75
2022/01/30 00:51:05;;;;;;;35.75;7.97;;;6.10;99.90;;;;;;5033998;28;20444;-74
2022/01/30 00:53:31;;;;;;;38.47;7.55;;;6.00;99.90;;;;;;5034537;28;20053;-76
2022/01/30 00:55:57;;;;;;;38.55;8.02;;;6.00;99.90;;;;;;5033254;28;20053;-76
2022/01/30 00:58:22;;;;;;;34.13;6.80;;;6.00;99.90;;;;;;5033348;28;20052;-74
2022/01/30 01:00:48;;;;;;;34.05;7.00;;;6.00;99.90;;;;;;5033752;28;20129;-74
2022/01/30 01:03:13;;;;;;;30.58;6.47;;;6.00;99.90;;;;;;5016893;28;20100;-77
2022/01/30 01:05:39;;;;;;;39.72;7.18;;;6.00;99.90;;;;;;5035150;28;20072;-75
2022/01/30 01:11:29;;;;;;;38.25;7.50;;;6.00;99.90;;;;;;5014515;28;20132;-76
2022/01/30 01:24:06;;;;;;;30.95;6.47;;;6.20;99.90;;;;;;5037030;28;20049;-76
2022/01/30 01:26:32;;;;;;;29.58;7.68;;;6.20;99.90;;;;;;5037267;28;20118;-76
2022/01/30 01:28:58;;;;;;;36.42;9.05;;;6.30;99.90;;;;;;5037081;28;20432;-76
2022/01/30 01:31:24;;;;;;;35.08;8.23;;;6.20;99.90;;;;;;5036716;28;20042;-76
2022/01/30 01:36:28;;;;;;;37.15;8.02;;;6.20;99.90;;;;;;5037223;28;20094;-76
2022/01/30 01:38:54;;;;;;;36.50;8.57;;;6.20;99.90;;;;;;5037347;28;20045;-75
2022/01/30 01:41:22;;;;;;;40.53;9.82;;;6.30;99.90;;;;;;5037095;28;20045;-75
2022/01/30 01:43:49;;;;;;;44.30;8.52;;;6.30;99.90;;;;;;5017303;28;20061;-76
2022/01/30 01:46:23;;;;;;;36.30;7.43;;;6.30;99.90;;;;;;5017261;28;20379;-76
2022/01/30 01:48:51;;;;;;;39.35;7.07;;;6.50;99.90;;;;;;5017260;28;20053;-74
2022/01/30 01:51:21;;;;;;;55.00;8.73;;;6.50;99.90;;;;;;5017295;28;20038;-74
2022/01/30 01:53:51;;;;;;;35.33;8.30;;;6.50;99.90;;;;;;5016920;28;20118;-74
2022/01/30 01:56:18;;;;;;;41.58;9.02;;;6.50;99.90;;;;;;5017458;28;20454;-74
2022/01/30 01:58:44;;;;;;;38.50;7.72;;;6.50;99.90;;;;;;5036781;28;20060;-77
2022/01/30 02:01:10;;;;;;;41.35;8.30;;;6.50;99.90;;;;;;5035694;28;20487;-76
2022/01/30 02:03:37;;;;;;;45.33;9.27;;;6.40;99.90;;;;;;5035942;28;20057;-75
2022/01/30 02:06:04;;;;;;;43.20;8.52;;;6.50;99.90;;;;;;5036698;28;20376;-74
2022/01/30 02:08:36;;;;;;;37.95;7.60;;;6.40;99.90;;;;;;5036342;28;20045;-74
2022/01/30 02:11:07;;;;;;;34.70;7.88;;;6.40;99.90;;;;;;5035996;28;20049;-75
2022/01/30 02:24:45;;;;;;;25.02;5.95;;;6.00;99.90;;;;;;5036306;28;20045;-74
2022/01/30 02:27:21;;;;;;;35.20;5.95;;;5.80;99.90;;;;;;5033804;28;20057;-77
2022/01/30 02:29:46;;;;;;;26.15;6.18;;;5.60;99.90;;;;;;5036219;28;20068;-75
2022/01/30 02:32:13;;;;;;;27.63;5.95;;;5.50;99.90;;;;;;5034703;28;20049;-73
2022/01/30 02:34:38;;;;;;;34.33;6.78;;;5.50;99.90;;;;;;5035477;28;20049;-76
2022/01/30 02:37:05;;;;;;;34.40;8.35;;;5.50;99.90;;;;;;5036190;28;20041;-74
2022/01/30 02:39:31;;;;;;;41.78;8.57;;;5.60;99.90;;;;;;5036201;28;20053;-75
2022/01/30 02:41:57;;;;;;;43.40;9.65;;;5.70;99.90;;;;;;5035827;28;20068;-74
2022/01/30 02:44:28;;;;;;;41.60;10.07;;;5.80;99.90;;;;;;5036121;28;20041;-76
2022/01/30 02:46:57;;;;;;;42.72;8.35;;;5.90;99.90;;;;;;5035268;28;20085;-76
2022/01/30 02:49:29;;;;;;;51.33;9.88;;;6.00;99.90;;;;;;5035890;28;20076;-76
2022/01/30 02:52:05;;;;;;;47.45;9.35;;;6.00;99.90;;;;;;5035144;28;20049;-76
2022/01/30 02:54:31;;;;;;;45.95;11.02;;;6.00;99.90;;;;;;5034082;28;20046;-76
2022/01/30 02:56:58;;;;;;;44.75;9.43;;;6.10;99.90;;;;;;5035390;28;20099;-75
2022/01/30 02:59:24;;;;;;;45.83;8.40;;;6.10;99.90;;;;;;5035321;28;20053;-75
2022/01/30 03:01:51;;;;;;;45.70;10.57;;;6.00;99.90;;;;;;5035963;28;20042;-75
2022/01/30 03:04:17;;;;;;;54.15;10.27;;;6.00;99.90;;;;;;5035456;28;20056;-75
2022/01/30 03:06:44;;;;;;;45.72;10.43;;;5.90;99.90;;;;;;5035339;28;20119;-74
2022/01/30 03:09:10;;;;;;;44.65;9.85;;;5.80;99.90;;;;;;5035302;28;20049;-76
2022/01/30 03:11:37;;;;;;;63.13;11.52;;;5.90;99.90;;;;;;5033883;28;20050;-74
2022/01/30 03:14:05;;;;;;;47.33;10.07;;;5.90;99.90;;;;;;5035742;28;20057;-74
2022/01/30 03:16:30;;;;;;;48.50;8.77;;;6.00;99.90;;;;;;5035321;28;20045;-75
2022/01/30 03:18:56;;;;;;;50.33;10.38;;;6.00;99.90;;;;;;5034906;28;20033;-73
2022/01/30 03:21:22;;;;;;;54.30;9.50;;;6.00;99.90;;;;;;5034242;28;20491;-76
2022/01/30 03:23:47;;;;;;;49.10;11.10;;;6.00;99.90;;;;;;5034750;28;20052;-75
2022/01/30 03:26:14;;;;;;;50.67;11.32;;;6.10;99.90;;;;;;5035397;28;20056;-75
2022/01/30 03:28:42;;;;;;;49.20;11.75;;;6.10;99.90;;;;;;5034051;28;20057;-74
2022/01/30 03:31:11;;;;;;;47.50;11.23;;;6.10;99.90;;;;;;5034220;28;20146;-75
2022/01/30 03:33:37;;;;;;;45.63;10.70;;;5.90;99.90;;;;;;5035279;28;20065;-76
2022/01/30 03:36:03;;;;;;;38.17;8.07;;;5.80;99.90;;;;;;5034710;28;20041;-73
2022/01/30 03:38:29;;;;;;;50.85;9.25;;;5.70;99.90;;;;;;5034722;28;20052;-76
2022/01/30 03:40:54;;;;;;;44.17;9.60;;;5.60;99.90;;;;;;5034844;28;20212;-76
2022/01/30 03:43:21;;;;;;;54.97;8.77;;;5.60;99.90;;;;;;5034993;28;20111;-74
2022/01/30 03:45:47;;;;;;;47.60;9.25;;;5.50;99.90;;;;;;5034949;28;20136;-75
2022/01/30 03:48:14;;;;;;;54.55;10.60;;;5.60;99.90;;;;;;5034969;28;20080;-76
2022/01/30 03:50:41;;;;;;;53.80;10.05;;;5.60;99.90;;;;;;5034198;28;20057;-75
2022/01/30 03:53:07;;;;;;;43.53;11.20;;;5.60;99.90;;;;;;5034804;28;20517;-76
2022/01/30 03:55:33;;;;;;;45.22;9.25;;;5.70;99.90;;;;;;5015170;28;20046;-75
2022/01/30 03:57:58;;;;;;;39.97;8.80;;;5.80;99.90;;;;;;5015105;28;20042;-76
2022/01/30 04:00:24;;;;;;;49.95;10.43;;;5.90;99.90;;;;;;5014955;28;20076;-74
2022/01/30 04:02:50;;;;;;;55.85;11.85;;;6.00;99.90;;;;;;5014969;28;20350;-76
2022/01/30 04:05:16;;;;;;;44.90;9.82;;;6.10;99.90;;;;;;5014632;28;20121;-75
2022/01/30 04:07:42;;;;;;;46.42;9.35;;;6.20;99.90;;;;;;5014557;28;20452;-74
2022/01/30 04:10:08;;;;;;;41.03;9.50;;;6.10;99.90;;;;;;5033212;28;20042;-75
2022/01/30 04:12:34;;;;;;;40.17;10.05;;;6.10;99.90;;;;;;5033839;28;20049;-76
2022/01/30 04:15:00;;;;;;;43.85;9.52;;;6.10;99.90;;;;;;5034820;28;20056;-71
2022/01/30 04:17:26;;;;;;;40.38;8.98;;;6.10;99.90;;;;;;5034373;28;20049;-73
2022/01/30 04:19:51;;;;;;;41.78;8.13;;;6.20;99.90;;;;;;5034569;28;20041;-74
2022/01/30 04:22:17;;;;;;;51.63;9.85;;;6.10;99.90;;;;;;5034039;28;20053;-73
2022/01/30 04:24:43;;;;;;;47.97;10.30;;;6.10;99.90;;;;;;5034544;28;20045;-73
2022/01/30 04:27:08;;;;;;;41.40;9.40;;;6.10;99.90;;;;;;5034127;28;20049;-73
2022/01/30 04:29:34;;;;;;;36.60;9.45;;;6.00;99.90;;;;;;5033613;28;20080;-73
2022/01/30 04:32:02;;;;;;;45.45;9.27;;;6.10;99.90;;;;;;5034702;28;20049;-72
2022/01/30 04:34:28;;;;;;;49.08;10.40;;;6.10;99.90;;;;;;5034395;28;20341;-73
2022/01/30 04:37:02;;;;;;;43.95;10.18;;;6.10;99.90;;;;;;5034326;28;20057;-75
2022/01/30 04:59:10;;;;;;;47.38;10.48;;;6.00;99.90;;;;;;5030199;28;20053;-74
2022/01/30 05:01:15;;;;;;;44.03;10.15;;;6.10;99.90;;;;;;5014273;28;20054;-72
2022/01/30 05:06:29;;;;;;;43.95;10.77;;;6.00;99.90;;;;;;5017850;28;20065;-73
2022/01/30 05:08:55;;;;;;;50.58;10.50;;;6.00;99.90;;;;;;5017890;28;20063;-73
2022/01/30 05:11:22;;;;;;;42.53;10.38;;;5.90;99.90;;;;;;5018082;28;20129;-73
2022/01/30 05:13:49;;;;;;;48.55;10.07;;;6.00;99.90;;;;;;5018496;28;20100;-72
2022/01/30 05:16:16;;;;;;;43.90;9.05;;;6.00;99.90;;;;;;5037625;28;20049;-74
2022/01/30 05:18:42;;;;;;;51.13;11.25;;;6.00;99.90;;;;;;5025782;28;20052;-71
2022/01/30 05:21:08;;;;;;;39.10;9.85;;;6.00;99.90;;;;;;5017152;28;20141;-72
2022/01/30 05:23:34;;;;;;;63.30;11.82;;;5.90;99.90;;;;;;5017690;28;20431;-74
2022/01/30 05:26:06;;;;;;;50.30;10.48;;;5.90;99.90;;;;;;5018043;28;20053;-73
2022/01/30 05:28:32;;;;;;;45.45;9.80;;;5.90;99.90;;;;;;5017595;28;20127;-72
2022/01/30 05:30:58;;;;;;;47.50;9.77;;;5.90;99.90;;;;;;5017819;28;20452;-71
2022/01/30 05:33:24;;;;;;;45.40;10.73;;;5.90;99.90;;;;;;5027342;28;20470;-72
2022/01/30 05:35:49;;;;;;;44.90;10.48;;;5.90;99.90;;;;;;5037188;28;20069;-72
2022/01/30 05:38:15;;;;;;;55.78;10.98;;;5.90;99.90;;;;;;5037621;28;20435;-73
2022/01/30 05:40:41;;;;;;;43.67;9.65;;;6.00;99.90;;;;;;5037211;28;20045;-72
2022/01/30 05:43:07;;;;;;;43.50;9.70;;;6.10;99.90;;;;;;5036225;28;20053;-73
2022/01/30 05:45:46;;;;;;;43.72;9.55;;;6.20;99.90;;;;;;5037205;28;20045;-75
2022/01/30 05:48:16;;;;;;;56.65;10.63;;;6.30;99.90;;;;;;5026272;28;20360;-73
2022/01/30 05:50:42;;;;;;;56.58;13.15;;;6.20;99.90;;;;;;5017382;28;20046;-72
2022/01/30 05:53:09;;;;;;;51.85;8.82;;;6.10;99.90;;;;;;5017048;28;20092;-71
2022/01/30 05:55:36;;;;;;;54.83;11.07;;;6.10;99.90;;;;;;5016958;28;20120;-75
2022/01/30 05:58:01;;;;;;;46.70;11.10;;;6.00;99.90;;;;;;5016528;28;20364;-72
2022/01/30 06:00:27;;;;;;;48.38;10.93;;;5.90;99.90;;;;;;5021585;28;20049;-72
2022/01/30 06:02:54;;;;;;;55.70;10.63;;;5.90;99.90;;;;;;5036500;28;20045;-74
2022/01/30 06:05:22;;;;;;;52.08;10.32;;;5.90;99.90;;;;;;5036748;28;20037;-74
2022/01/30 06:07:53;;;;;;;53.45;10.88;;;6.00;99.90;;;;;;5034780;28;20067;-75
2022/01/30 06:10:21;;;;;;;57.63;12.93;;;6.00;99.90;;;;;;5035648;28;20372;-76
2022/01/30 06:12:46;;;;;;;43.58;9.40;;;6.10;99.90;;;;;;5036642;28;20087;-76
2022/01/30 06:15:13;;;;;;;42.47;8.57;;;6.10;99.90;;;;;;5030964;28;20074;-74
2022/01/30 06:17:40;;;;;;;37.20;7.88;;;6.00;99.90;;;;;;5016819;28;20088;-73
2022/01/30 06:20:06;;;;;;;40.50;8.57;;;6.00;99.90;;;;;;5016822;28;20058;-73
2022/01/30 06:22:32;;;;;;;55.63;10.32;;;6.00;99.90;;;;;;5016750;28;20042;-74
2022/01/30 06:24:58;;;;;;;50.35;10.85;;;6.00;99.90;;;;;;5022615;28;20052;-74
2022/01/30 06:27:23;;;;;;;56.63;11.45;;;6.10;99.90;;;;;;5036236;28;20128;-73
2022/01/30 06:29:49;;;;;;;53.42;10.68;;;6.10;99.90;;;;;;5035687;28;20057;-74
2022/01/30 06:32:16;;;;;;;53.53;11.43;;;6.20;99.90;;;;;;5036126;28;20057;-73
2022/01/30 06:34:42;;;;;;;53.30;11.40;;;6.30;99.90;;;;;;5036214;28;20192;-74
2022/01/30 06:37:07;;;;;;;53.75;10.50;;;6.40;99.90;;;;;;5035929;28;20524;-74
2022/01/30 06:39:33;;;;;;;51.00;10.45;;;6.30;99.90;;;;;;5035297;28;20037;-72
2022/01/30 06:41:59;;;;;;;46.45;12.55;;;6.40;99.90;;;;;;5035563;28;20048;-73
2022/01/30 06:44:25;;;;;;;54.70;11.52;;;6.30;99.90;;;;;;5035791;28;20049;-74
2022/01/30 06:46:50;;;;;;;40.67;9.07;;;6.20;99.90;;;;;;5035854;28;20060;-73
2022/01/30 06:49:16;;;;;;;54.92;11.35;;;6.20;99.90;;;;;;5034510;28;20061;-74
2022/01/30 06:51:41;;;;;;;50.20;10.32;;;6.10;99.90;;;;;;5035830;28;20069;-74
2022/01/30 06:54:07;;;;;;;50.63;12.20;;;6.10;99.90;;;;;;5035660;28;20051;-74
2022/01/30 06:56:32;;;;;;;53.65;12.18;;;6.20;99.90;;;;;;5034270;28;20128;-72
2022/01/30 06:58:58;;;;;;;47.55;10.30;;;6.10;99.90;;;;;;5034925;28;20099;-73
2022/01/30 07:01:25;;;;;;;48.13;10.88;;;6.10;99.90;;;;;;5035790;28;20184;-72
2022/01/30 07:03:52;;;;;;;57.22;11.30;;;6.10;99.90;;;;;;5034702;28;20078;-72
2022/01/30 07:06:17;;;;;;;50.25;10.60;;;6.00;99.90;;;;;;5035841;28;20051;-72
2022/01/30 07:08:43;;;;;;;47.85;10.05;;;6.10;99.90;;;;;;5034740;28;20049;-73
2022/01/30 07:11:09;;;;;;;46.63;9.38;;;6.00;99.90;;;;;;5035358;28;20038;-72
2022/01/30 07:13:34;;;;;;;47.28;12.43;;;6.00;99.90;;;;;;5035466;28;20045;-74
2022/01/30 07:16:00;;;;;;;60.17;10.68;;;6.00;99.90;;;;;;5035112;28;20041;-73
2022/01/30 07:18:25;;;;;;;51.33;9.98;;;6.00;99.90;;;;;;5034313;28;20046;-73
2022/01/30 07:20:51;;;;;;;53.45;10.05;;;6.00;99.90;;;;;;5035330;28;20191;-72
2022/01/30 07:23:16;;;;;;;43.70;9.52;;;5.90;99.90;;;;;;5035315;28;20067;-74
2022/01/30 07:25:44;;;;;;;50.33;9.95;;;5.90;99.90;;;;;;5035023;28;20150;-73
2022/01/30 07:28:10;;;;;;;54.75;9.98;;;5.90;99.90;;;;;;5034314;28;20057;-74
2022/01/30 07:30:36;;;;;;;47.75;10.73;;;5.90;99.90;;;;;;5025487;28;20460;-73
2022/01/30 07:33:03;;;;;;;51.78;10.93;;;5.90;99.90;;;;;;5015163;28;20115;-74
2022/01/30 07:35:29;;;;;;;45.10;10.57;;;5.90;99.90;;;;;;5017909;28;20049;-73
2022/01/30 07:37:55;;;;;;;45.53;9.88;;;6.00;99.90;;;;;;5035056;28;20045;-72
2022/01/30 07:40:21;;;;;;;52.53;10.02;;;6.00;99.90;;;;;;5034073;28;20045;-72
2022/01/30 07:42:47;;;;;;;55.58;10.55;;;6.00;99.90;;;;;;5017513;28;20455;-74
2022/01/30 07:45:12;;;;;;;55.88;10.98;;;5.90;99.90;;;;;;5033669;28;20079;-74
2022/01/30 07:47:38;;;;;;;63.63;13.10;;;5.90;99.90;;;;;;5033949;28;20049;-73
2022/01/30 07:50:04;;;;;;;53.53;12.30;;;5.90;99.90;;;;;;5034143;28;20379;-72
2022/01/30 07:52:30;;;;;;;50.97;12.13;;;5.90;99.90;;;;;;5034447;28;20041;-77
2022/01/30 07:54:56;;;;;;;47.83;9.38;;;6.00;99.90;;;;;;5017107;28;20057;-72
2022/01/30 07:57:22;;;;;;;45.33;11.63;;;6.00;99.90;;;;;;5034745;28;20052;-74
2022/01/30 07:59:48;;;;;;;52.97;9.93;;;6.10;99.90;;;;;;5033864;28;20049;-73
2022/01/30 08:02:14;;;;;;;42.72;10.20;;;6.00;99.90;;;;;;5034647;28;20049;-73
2022/01/30 08:04:40;;;;;;;41.88;10.23;;;5.80;99.90;;;;;;5033789;28;20049;-74
2022/01/30 08:07:06;;;;;;;46.70;9.63;;;5.70;99.90;;;;;;5033598;28;20068;-74
2022/01/30 08:09:31;;;;;;;40.83;8.65;;;5.60;99.90;;;;;;5034184;28;20061;-74
2022/01/30 08:11:57;;;;;;;37.08;8.00;;;5.50;99.90;;;;;;5034765;28;20111;-72
2022/01/30 08:14:23;;;;;;;40.90;8.57;;;5.50;99.90;;;;;;5034246;28;20037;-73
2022/01/30 08:16:49;;;;;;;37.63;8.50;;;5.40;99.90;;;;;;5037985;28;20077;-73
2022/01/30 08:19:15;;;;;;;40.28;9.82;;;5.40;99.90;;;;;;5038677;28;20124;-72
2022/01/30 08:21:41;;;;;;;47.83;9.10;;;5.40;99.90;;;;;;5038821;28;20052;-75
2022/01/30 08:24:06;;;;;;;40.92;9.25;;;5.40;99.90;;;;;;5037750;28;20045;-73
2022/01/30 08:26:32;;;;;;;43.70;8.88;;;5.40;99.90;;;;;;5038769;28;20106;-75
2022/01/30 08:28:57;;;;;;;47.08;9.95;;;5.50;99.90;;;;;;5036461;28;20049;-75
2022/01/30 08:31:23;;;;;;;46.65;8.90;;;5.60;99.90;;;;;;5037778;28;20049;-75
2022/01/30 08:33:48;;;;;;;39.67;8.18;;;5.50;99.90;;;;;;5038536;28;20079;-72
2022/01/30 08:36:14;;;;;;;47.80;8.98;;;5.50;99.90;;;;;;5038439;28;20088;-76
2022/01/30 08:38:39;;;;;;;46.13;9.55;;;5.60;99.90;;;;;;5038332;28;20052;-73
2022/01/30 08:41:05;;;;;;;47.45;10.63;;;5.60;99.90;;;;;;5038450;28;20048;-74
2022/01/30 08:43:31;;;;;;;59.42;9.70;;;5.60;99.90;;;;;;5025337;28;20196;-74
2022/01/30 08:45:58;;;;;;;57.47;10.45;;;5.60;99.90;;;;;;5033201;28;20041;-71
2022/01/30 08:48:24;;;;;;;44.05;9.35;;;5.60;99.90;;;;;;5036403;28;20375;-74
2022/01/30 08:50:51;;;;;;;47.90;10.45;;;5.60;99.90;;;;;;5030615;28;20037;-73
2022/01/30 08:53:17;;;;;;;49.50;9.50;;;5.60;99.90;;;;;;5020156;28;20049;-74
2022/01/30 08:55:43;;;;;;;42.85;8.95;;;5.60;99.90;;;;;;5037199;28;20053;-73
2022/01/30 08:58:09;;;;;;;47.60;9.32;;;5.60;99.90;;;;;;5037388;28;20059;-73
2022/01/30 09:00:36;;;;;;;57.28;10.27;;;5.70;99.90;;;;;;5037964;28;20034;-73
2022/01/30 09:03:03;;;;;;;46.20;10.43;;;5.70;99.90;;;;;;5038095;28;20049;-74
2022/01/30 09:05:30;;;;;;;47.67;9.40;;;5.70;99.90;;;;;;5037954;28;20052;-72
2022/01/30 09:07:56;;;;;;;55.42;10.57;;;5.70;99.90;;;;;;5036459;28;20069;-73
2022/01/30 09:10:22;;;;;;;48.53;10.80;;;5.80;99.90;;;;;;5036259;28;20053;-74
2022/01/30 09:12:47;;;;;;;48.63;11.73;;;5.90;99.90;;;;;;5037804;28;20102;-75
2022/01/30 09:15:15;;;;;;;55.72;10.18;;;6.00;99.90;;;;;;5037645;28;20045;-72
2022/01/30 09:17:41;;;;;;;55.03;11.32;;;6.00;99.90;;;;;;5037459;28;20106;-73
2022/01/30 09:20:08;;;;;;;51.35;8.55;;;6.20;99.90;;;;;;5035813;28;20045;-73
2022/01/30 09:22:34;;;;;;;40.72;8.98;;;6.30;99.90;;;;;;5037440;28;20387;-74
2022/01/30 09:24:59;;;;;;;54.53;11.82;;;6.40;99.90;;;;;;5037456;28;20052;-70
2022/01/30 09:27:25;;;;;;;49.53;10.73;;;6.40;99.90;;;;;;5019621;28;20049;-72
2022/01/30 09:29:51;;;;;;;45.83;12.00;;;6.40;99.90;;;;;;5037089;28;20061;-71
2022/01/30 09:32:17;;;;;;;58.65;11.52;;;6.20;99.90;;;;;;5035448;28;20076;-72
2022/01/30 09:34:43;;;;;;;51.15;11.55;;;6.10;99.90;;;;;;5002357;28;20080;-72
2022/01/30 09:37:09;;;;;;;47.08;10.82;;;6.10;99.90;;;;;;5036449;28;20136;-73
2022/01/30 09:39:36;;;;;;;42.78;8.73;;;6.10;99.90;;;;;;5035617;28;20049;-72
2022/01/30 09:42:01;;;;;;;49.10;10.98;;;6.10;99.90;;;;;;5019617;28;20333;-73
2022/01/30 09:44:27;;;;;;;44.58;10.18;;;6.10;99.90;;;;;;5017519;28;20104;-74
2022/01/30 09:46:53;;;;;;;48.95;9.98;;;6.10;99.90;;;;;;5036391;28;20451;-75
2022/01/30 09:49:23;;;;;;;45.80;10.02;;;6.20;99.90;;;;;;5024599;28;20041;-75
2022/01/30 09:51:51;;;;;;;45.90;10.48;;;6.20;99.90;;;;;;5017374;28;20132;-74
2022/01/30 09:54:17;;;;;;;46.63;10.75;;;6.20;99.90;;;;;;5017365;28;20050;-75
2022/01/30 09:56:42;;;;;;;46.30;8.65;;;6.30;99.90;;;;;;5017423;28;20191;-71
2022/01/30 09:59:08;;;;;;;50.95;10.80;;;6.30;99.90;;;;;;5015986;28;20440;-73
2022/01/30 10:01:35;;;;;;;49.55;9.73;;;6.40;99.90;;;;;;5017426;28;20160;-70
2022/01/30 10:04:02;;;;;;;47.97;8.30;;;6.40;99.90;;;;;;5027760;28;20391;-73
2022/01/30 10:06:35;;;;;;;40.40;9.13;;;6.40;99.90;;;;;;5035074;28;20064;-71
2022/01/30 10:09:09;;;;;;;43.08;9.82;;;6.40;99.90;;;;;;5035976;28;20056;-71
2022/01/30 10:11:51;;;;;;;;;;;6.40;99.90;;;;;;5032851;28;20064;-70
2022/01/30 10:14:17;;;;;;;44.97;8.90;;;6.40;99.90;;;;;;5021124;28;19932;-72
2022/01/30 10:16:48;;;;;;;47.47;8.65;;;6.50;99.90;;;;;;5020845;28;20084;-69
2022/01/30 10:19:19;;;;;;;49.17;10.02;;;6.50;99.90;;;;;;5015844;28;20042;-69
2022/01/30 10:21:46;;;;;;;51.42;10.07;;;6.50;99.90;;;;;;5032380;28;20061;-72
2022/01/30 10:24:26;;;;;;;48.78;10.00;;;6.60;99.90;;;;;;5033943;28;20387;-70
2022/01/30 10:26:53;;;;;;;43.13;9.73;;;6.50;99.90;;;;;;5021507;28;20042;-72
2022/01/30 10:29:28;;;;;;;49.78;8.90;;;6.50;99.90;;;;;;5017385;28;20058;-71
2022/01/30 10:32:09;;;;;;;45.53;9.75;;;6.50;99.90;;;;;;5034040;28;20057;-71
2022/01/30 10:34:36;;;;;;;44.70;9.73;;;6.50;99.90;;;;;;5035852;28;20045;-70
2022/01/30 10:37:19;;;;;;;44.47;8.80;;;6.50;99.90;;;;;;5036175;28;20061;-74
2022/01/30 10:40:02;;;;;;;45.03;8.80;;;6.50;99.90;;;;;;5034123;28;20069;-71
2022/01/30 10:42:46;;;;;;;45.80;8.27;;;6.50;99.90;;;;;;5035691;28;20045;-73
2022/01/30 10:45:32;;;;;;;41.60;10.00;;;6.50;99.90;;;;;;5027096;28;20057;-71
2022/01/30 10:48:12;;;;;;;38.60;7.82;;;6.40;99.90;;;;;;5015844;28;20057;-73
2022/01/30 10:50:43;;;;;;;38.42;8.50;;;6.40;99.90;;;;;;5015467;28;20053;-71
2022/01/30 10:53:21;;;;;;;42.30;8.98;;;6.40;99.90;;;;;;5016158;28;20056;-72
2022/01/30 10:55:48;;;;;;;40.13;7.85;;;6.50;99.90;;;;;;5015155;28;20042;-72
2022/01/30 10:58:17;;;;;;;38.28;8.48;;;6.50;99.90;;;;;;4981455;28;20050;-72
2022/01/30 11:00:53;;;;;;;47.03;8.50;;;6.60;99.90;;;;;;5016892;28;20038;-72
2022/01/30 11:03:50;;;;;;;55.85;8.43;;;6.70;99.90;;;;;;5017806;28;20125;-71
2022/01/30 11:06:16;;;;;;;45.70;10.35;;;6.70;99.90;;;;;;5015681;28;20054;-72
2022/01/30 11:08:46;;;;;;;37.40;9.15;;;6.70;99.90;;;;;;5015676;28;20042;-71
2022/01/30 11:11:28;;;;;;;42.20;10.27;;;6.70;99.90;;;;;;5015478;28;20050;-73
2022/01/30 11:19:20;;;;;;;44.15;8.95;;;6.90;99.90;;;;;;5023652;28;20463;-71
2022/01/30 11:21:51;;;;;;;52.85;8.98;;;6.90;99.90;;;;;;5035469;28;20337;-73
2022/01/30 11:24:19;;;;;;;46.20;11.15;;;6.90;99.90;;;;;;5035415;28;20053;-72
2022/01/30 11:26:45;;;;;;;45.55;9.05;;;7.00;99.90;;;;;;5034502;28;20107;-71
2022/01/30 11:29:13;;;;;;;44.58;9.15;;;7.00;99.90;;;;;;5033978;28;20067;-72
2022/01/30 11:31:40;;;;;;;43.35;9.60;;;7.00;99.90;;;;;;5034976;28;20479;-71
2022/01/30 11:34:06;;;;;;;46.72;9.20;;;7.00;99.90;;;;;;5035073;28;20037;-70
2022/01/30 11:36:36;;;;;;;42.83;9.05;;;7.00;99.90;;;;;;5035078;28;20119;-73
2022/01/30 11:39:03;;;;;;;47.03;9.40;;;7.10;99.90;;;;;;5034159;28;20077;-71
2022/01/30 11:41:31;;;;;;;44.13;8.77;;;7.20;99.90;;;;;;5035154;28;20045;-70
2022/01/30 11:44:19;;;;;;;37.03;8.27;;;7.20;99.90;;;;;;5034148;28;20037;-73
2022/01/30 11:46:57;;;;;;;52.50;9.40;;;7.20;99.90;;;;;;5021324;28;20088;-73
2022/01/30 11:49:24;;;;;;;44.33;9.38;;;7.10;99.90;;;;;;5015087;28;20124;-70
2022/01/30 11:51:54;;;;;;;42.05;9.48;;;7.00;99.90;;;;;;5014669;28;20089;-72
2022/01/30 11:54:32;;;;;;;43.28;8.85;;;7.00;99.90;;;;;;5015296;28;20050;-72
2022/01/30 11:56:57;;;;;;;49.47;11.30;;;7.10;99.90;;;;;;5015192;28;20056;-72
2022/01/30 11:59:37;;;;;;;40.42;8.00;;;7.00;99.90;;;;;;5015167;28;20389;-71
2022/01/30 12:02:22;;;;;;;38.13;8.00;;;7.00;99.90;;;;;;5015285;28;20451;-72
2022/01/30 12:04:58;;;;;;;44.33;8.43;;;6.90;99.90;;;;;;5015725;28;20576;-70
2022/01/30 12:07:48;;;;;;;40.00;7.90;;;7.00;99.90;;;;;;5013827;28;20049;-70
2022/01/30 12:10:20;;;;;;;40.67;8.50;;;7.10;99.90;;;;;;5009739;28;20124;-71
2022/01/30 12:12:55;;;;;;;41.45;8.68;;;7.10;99.90;;;;;;5013866;28;20475;-73
2022/01/30 12:15:41;;;;;;;44.88;8.95;;;7.20;99.90;;;;;;5014573;28;20440;-72
2022/01/30 12:18:07;;;;;;;37.03;7.55;;;7.20;99.90;;;;;;5014707;28;20064;-73
2022/01/30 12:20:52;;;;;;;40.10;8.18;;;7.20;99.90;;;;;;5021917;28;20478;-72
2022/01/30 12:23:32;;;;;;;34.10;7.47;;;7.20;99.90;;;;;;5029792;28;20053;-71
2022/01/30 12:26:06;;;;;;;36.88;9.52;;;7.20;99.90;;;;;;5013972;28;20045;-71
2022/01/30 12:28:45;;;;;;;;;;;7.20;99.90;;;;;;5027075;28;20053;-72
2022/01/30 12:31:32;;;;;;;40.28;8.40;;;7.10;99.90;;;;;;5033876;28;19921;-70
2022/01/30 12:34:05;;;;;;;52.75;9.38;;;7.20;99.90;;;;;;5034483;28;20102;-71
2022/01/30 12:36:35;;;;;;;47.78;9.32;;;7.20;99.90;;;;;;5016749;28;20061;-72
2022/01/30 12:39:10;;;;;;;49.13;8.80;;;7.30;99.90;;;;;;5001029;28;20125;-74
2022/01/30 12:41:37;;;;;;;50.80;11.18;;;7.30;99.90;;;;;;5034402;28;20462;-72
2022/01/30 12:44:14;;;;;;;46.40;8.82;;;7.40;99.90;;;;;;5033421;28;20099;-72
2022/01/30 12:46:48;;;;;;;48.47;9.32;;;7.40;99.90;;;;;;5034587;28;20041;-76
2022/01/30 12:49:17;;;;;;;38.92;8.77;;;7.30;99.90;;;;;;5034160;28;20058;-72
2022/01/30 12:51:54;;;;;;;49.58;9.68;;;7.20;99.90;;;;;;5034837;28;20049;-74
2022/01/30 12:54:25;;;;;;;36.10;7.97;;;7.10;99.90;;;;;;5033636;28;20375;-76
2022/01/30 12:56:53;;;;;;;41.83;10.15;;;7.30;99.90;;;;;;5033966;28;20041;-73
2022/01/30 12:59:23;;;;;;;43.80;10.27;;;7.40;99.90;;;;;;5033215;28;20045;-74
2022/01/30 13:01:49;;;;;;;43.50;9.05;;;7.60;99.90;;;;;;5034752;28;20033;-73
2022/01/30 13:04:19;;;;;;;40.55;8.88;;;7.70;99.90;;;;;;5037837;28;20049;-76
2022/01/30 13:06:50;;;;;;;43.90;9.02;;;7.70;99.90;;;;;;5017620;28;20096;-75
2022/01/30 13:09:22;;;;;;;47.83;10.30;;;7.60;99.90;;;;;;5031616;28;20049;-73
2022/01/30 13:11:48;;;;;;;45.42;8.57;;;7.60;99.90;;;;;;5036504;28;20045;-77
2022/01/30 13:14:14;;;;;;;46.60;10.90;;;7.60;99.90;;;;;;5037305;28;20464;-72
2022/01/30 13:16:49;;;;;;;44.53;9.25;;;7.60;99.90;;;;;;5037265;28;20052;-73
2022/01/30 13:19:30;;;;;;;41.83;10.23;;;7.90;99.90;;;;;;5035456;28;20053;-72
2022/01/30 13:21:55;;;;;;;36.97;8.20;;;7.80;99.90;;;;;;5036629;28;20523;-75
2022/01/30 13:24:21;;;;;;;39.92;7.45;;;7.90;99.90;;;;;;5035162;28;20125;-72
2022/01/30 13:26:54;;;;;;;40.13;7.63;;;7.80;99.90;;;;;;5037380;28;20045;-76
2022/01/30 13:29:21;;;;;;;34.33;7.15;;;7.80;99.90;;;;;;5018867;28;20064;-72
2022/01/30 13:31:49;;;;;;;34.72;7.22;;;7.80;99.90;;;;;;5032835;28;20045;-75
2022/01/30 13:34:21;;;;;;;44.25;10.38;;;7.90;99.90;;;;;;5036286;28;20041;-74
2022/01/30 13:36:54;;;;;;;38.50;8.65;;;8.00;99.90;;;;;;5017805;28;20046;-74
2022/01/30 13:39:29;;;;;;;45.95;8.73;;;8.00;99.90;;;;;;5016271;28;20077;-76
2022/01/30 13:42:14;;;;;;;40.92;7.95;;;8.10;99.90;;;;;;5016630;28;20096;-72
2022/01/30 13:44:50;;;;;;;;;;;8.00;99.90;;;;;;5037012;28;20471;-74
2022/01/30 13:47:21;;;;;;;31.52;7.88;;;7.80;99.90;;;;;;5030393;28;20000;-74